sensor_id;sensor_type;location;lat;lon;timestamp;pressure;altitude;pressure_sealevel;temperature;humidity
50632;BME280;49583;45.590;-122.498;2023-04-20T00:00:22;101979.75;;;9.21;63.73
50632;BME280;49583;45.590;-122.498;2023-04-20T00:02:54;101985.67;;;9.17;64.11
50632;BME280;49583;45.590;-122.498;2023-04-20T00:05:09;101994.30;;;9.20;64.09
50632;BME280;49583;45.590;-122.498;2023-04-20T00:07:22;101994.33;;;9.24;64.57
50632;BME280;49583;45.590;-122.498;2023-04-20T00:09:34;101993.06;;;9.32;65.05
50632;BME280;49583;45.590;-122.498;2023-04-20T00:11:47;101990.30;;;9.38;64.87
50632;BME280;49583;45.590;-122.498;2023-04-20T00:14:00;101997.95;;;9.43;64.95
50632;BME280;49583;45.590;-122.498;2023-04-20T00:16:13;102000.64;;;9.47;64.38
50632;BME280;49583;45.590;-122.498;2023-04-20T00:18:25;102001.45;;;9.44;63.93
50632;BME280;49583;45.590;-122.498;2023-04-20T00:20:38;102000.92;;;9.40;64.28
50632;BME280;49583;45.590;-122.498;2023-04-20T00:22:52;101997.61;;;9.39;64.17
50632;BME280;49583;45.590;-122.498;2023-04-20T00:25:06;102001.19;;;9.40;64.48
50632;BME280;49583;45.590;-122.498;2023-04-20T00:27:19;102004.34;;;9.44;64.76
50632;BME280;49583;45.590;-122.498;2023-04-20T00:29:32;102006.56;;;9.46;64.68
50632;BME280;49583;45.590;-122.498;2023-04-20T00:31:45;102009.63;;;9.49;64.21
50632;BME280;49583;45.590;-122.498;2023-04-20T00:33:59;102005.85;;;9.51;64.00
50632;BME280;49583;45.590;-122.498;2023-04-20T00:36:11;102010.02;;;9.53;63.72
50632;BME280;49583;45.590;-122.498;2023-04-20T00:38:24;102001.91;;;9.56;64.20
50632;BME280;49583;45.590;-122.498;2023-04-20T00:40:41;102005.14;;;9.61;64.00
50632;BME280;49583;45.590;-122.498;2023-04-20T00:42:57;102006.14;;;9.62;64.12
50632;BME280;49583;45.590;-122.498;2023-04-20T00:45:20;102009.81;;;9.64;63.75
50632;BME280;49583;45.590;-122.498;2023-04-20T00:47:34;102013.89;;;9.68;64.15
50632;BME280;49583;45.590;-122.498;2023-04-20T00:49:47;102013.23;;;9.70;63.63
50632;BME280;49583;45.590;-122.498;2023-04-20T00:52:00;102009.97;;;9.62;63.42
50632;BME280;49583;45.590;-122.498;2023-04-20T00:54:14;102017.36;;;9.57;63.31
50632;BME280;49583;45.590;-122.498;2023-04-20T00:56:26;102017.85;;;9.55;63.85
50632;BME280;49583;45.590;-122.498;2023-04-20T00:58:39;102023.08;;;9.56;63.82
50632;BME280;49583;45.590;-122.498;2023-04-20T01:00:52;102021.19;;;9.50;63.64
50632;BME280;49583;45.590;-122.498;2023-04-20T01:03:06;102020.89;;;9.47;63.83
50632;BME280;49583;45.590;-122.498;2023-04-20T01:05:19;102020.11;;;9.49;64.35
50632;BME280;49583;45.590;-122.498;2023-04-20T01:07:33;102021.89;;;9.50;63.79
50632;BME280;49583;45.590;-122.498;2023-04-20T01:09:46;102024.95;;;9.50;63.38
50632;BME280;49583;45.590;-122.498;2023-04-20T01:11:58;102024.17;;;9.52;63.77
50632;BME280;49583;45.590;-122.498;2023-04-20T01:14:12;102022.67;;;9.57;63.51
50632;BME280;49583;45.590;-122.498;2023-04-20T01:16:25;102019.96;;;9.62;63.32
50632;BME280;49583;45.590;-122.498;2023-04-20T01:18:46;102024.33;;;9.67;63.33
50632;BME280;49583;45.590;-122.498;2023-04-20T01:20:59;102027.00;;;9.73;63.04
50632;BME280;49583;45.590;-122.498;2023-04-20T01:23:11;102029.15;;;9.77;62.60
50632;BME280;49583;45.590;-122.498;2023-04-20T01:25:25;102029.64;;;9.81;62.22
50632;BME280;49583;45.590;-122.498;2023-04-20T01:27:38;102032.67;;;9.85;62.18
50632;BME280;49583;45.590;-122.498;2023-04-20T01:29:52;102034.48;;;9.86;62.22
50632;BME280;49583;45.590;-122.498;2023-04-20T01:32:04;102039.80;;;9.89;61.88
50632;BME280;49583;45.590;-122.498;2023-04-20T01:34:18;102046.74;;;9.90;62.07
50632;BME280;49583;45.590;-122.498;2023-04-20T01:36:31;102047.14;;;9.90;61.94
50632;BME280;49583;45.590;-122.498;2023-04-20T01:38:44;102047.64;;;9.88;61.78
50632;BME280;49583;45.590;-122.498;2023-04-20T01:40:57;102053.02;;;9.86;62.12
50632;BME280;49583;45.590;-122.498;2023-04-20T01:43:10;102059.09;;;9.86;61.80
50632;BME280;49583;45.590;-122.498;2023-04-20T01:45:23;102057.90;;;9.85;61.83
50632;BME280;49583;45.590;-122.498;2023-04-20T01:47:36;102062.20;;;9.83;62.00
50632;BME280;49583;45.590;-122.498;2023-04-20T01:49:50;102059.50;;;9.82;62.14
50632;BME280;49583;45.590;-122.498;2023-04-20T01:52:02;102062.66;;;9.80;61.86
50632;BME280;49583;45.590;-122.498;2023-04-20T01:54:15;102061.14;;;9.76;62.14
50632;BME280;49583;45.590;-122.498;2023-04-20T01:56:28;102064.56;;;9.74;61.79
50632;BME280;49583;45.590;-122.498;2023-04-20T01:58:40;102066.16;;;9.66;61.47
50632;BME280;49583;45.590;-122.498;2023-04-20T02:00:53;102061.23;;;9.56;61.74
50632;BME280;49583;45.590;-122.498;2023-04-20T02:03:07;102063.93;;;9.54;61.97
50632;BME280;49583;45.590;-122.498;2023-04-20T02:05:21;102065.86;;;9.51;62.12
50632;BME280;49583;45.590;-122.498;2023-04-20T02:07:34;102074.33;;;9.54;61.99
50632;BME280;49583;45.590;-122.498;2023-04-20T02:09:47;102073.42;;;9.54;62.11
50632;BME280;49583;45.590;-122.498;2023-04-20T02:12:00;102075.17;;;9.57;62.07
50632;BME280;49583;45.590;-122.498;2023-04-20T02:14:13;102078.89;;;9.59;62.39
50632;BME280;49583;45.590;-122.498;2023-04-20T02:16:26;102082.65;;;9.59;62.13
50632;BME280;49583;45.590;-122.498;2023-04-20T02:18:40;102079.15;;;9.59;62.28
50632;BME280;49583;45.590;-122.498;2023-04-20T02:20:54;102083.84;;;9.56;62.13
50632;BME280;49583;45.590;-122.498;2023-04-20T02:23:07;102086.86;;;9.57;62.04
50632;BME280;49583;45.590;-122.498;2023-04-20T02:25:20;102089.56;;;9.57;62.29
50632;BME280;49583;45.590;-122.498;2023-04-20T02:27:32;102094.40;;;9.53;62.16
50632;BME280;49583;45.590;-122.498;2023-04-20T02:29:45;102095.41;;;9.52;62.34
50632;BME280;49583;45.590;-122.498;2023-04-20T02:31:58;102097.20;;;9.50;61.98
50632;BME280;49583;45.590;-122.498;2023-04-20T02:34:11;102102.71;;;9.44;62.19
50632;BME280;49583;45.590;-122.498;2023-04-20T02:36:23;102113.92;;;9.41;62.45
50632;BME280;49583;45.590;-122.498;2023-04-20T02:38:36;102117.36;;;9.41;62.63
50632;BME280;49583;45.590;-122.498;2023-04-20T02:40:49;102123.13;;;9.42;62.98
50632;BME280;49583;45.590;-122.498;2023-04-20T02:43:02;102115.71;;;9.43;62.85
50632;BME280;49583;45.590;-122.498;2023-04-20T02:45:16;102113.85;;;9.39;62.80
50632;BME280;49583;45.590;-122.498;2023-04-20T02:47:30;102120.31;;;9.39;62.54
50632;BME280;49583;45.590;-122.498;2023-04-20T02:49:43;102122.98;;;9.36;62.72
50632;BME280;49583;45.590;-122.498;2023-04-20T02:51:57;102129.81;;;9.33;62.43
50632;BME280;49583;45.590;-122.498;2023-04-20T02:54:10;102130.59;;;9.31;62.23
50632;BME280;49583;45.590;-122.498;2023-04-20T02:56:23;102128.65;;;9.29;62.15
50632;BME280;49583;45.590;-122.498;2023-04-20T02:58:40;102135.69;;;9.27;61.70
50632;BME280;49583;45.590;-122.498;2023-04-20T03:01:14;102140.41;;;9.23;61.26
50632;BME280;49583;45.590;-122.498;2023-04-20T03:03:29;102143.20;;;9.21;60.97
50632;BME280;49583;45.590;-122.498;2023-04-20T03:05:42;102152.98;;;9.20;60.97
50632;BME280;49583;45.590;-122.498;2023-04-20T03:07:55;102155.05;;;9.18;60.68
50632;BME280;49583;45.590;-122.498;2023-04-20T03:10:10;102153.77;;;9.14;60.68
50632;BME280;49583;45.590;-122.498;2023-04-20T03:12:53;102153.88;;;9.09;60.54
50632;BME280;49583;45.590;-122.498;2023-04-20T03:15:28;102157.70;;;9.03;60.04
50632;BME280;49583;45.590;-122.498;2023-04-20T03:17:59;102171.95;;;8.97;59.83
50632;BME280;49583;45.590;-122.498;2023-04-20T03:20:13;102172.39;;;8.94;60.06
50632;BME280;49583;45.590;-122.498;2023-04-20T03:22:27;102174.63;;;8.88;59.58
50632;BME280;49583;45.590;-122.498;2023-04-20T03:24:41;102176.48;;;8.82;59.88
50632;BME280;49583;45.590;-122.498;2023-04-20T03:27:00;102185.73;;;8.78;60.29
50632;BME280;49583;45.590;-122.498;2023-04-20T03:29:25;102189.33;;;8.70;61.13
50632;BME280;49583;45.590;-122.498;2023-04-20T03:31:38;102186.21;;;8.58;61.32
50632;BME280;49583;45.590;-122.498;2023-04-20T03:33:52;102186.58;;;8.48;61.88
50632;BME280;49583;45.590;-122.498;2023-04-20T03:36:05;102186.05;;;8.37;62.06
50632;BME280;49583;45.590;-122.498;2023-04-20T03:38:18;102192.98;;;8.31;62.60
50632;BME280;49583;45.590;-122.498;2023-04-20T03:40:33;102191.08;;;8.23;62.76
50632;BME280;49583;45.590;-122.498;2023-04-20T03:42:45;102188.54;;;8.20;63.01
50632;BME280;49583;45.590;-122.498;2023-04-20T03:44:58;102195.23;;;8.16;63.29
50632;BME280;49583;45.590;-122.498;2023-04-20T03:47:10;102207.75;;;8.09;63.49
50632;BME280;49583;45.590;-122.498;2023-04-20T03:49:25;102214.42;;;8.00;63.46
50632;BME280;49583;45.590;-122.498;2023-04-20T03:51:38;102217.23;;;7.94;63.68
50632;BME280;49583;45.590;-122.498;2023-04-20T03:53:51;102220.84;;;7.88;63.90
50632;BME280;49583;45.590;-122.498;2023-04-20T03:56:05;102226.85;;;7.85;63.97
50632;BME280;49583;45.590;-122.498;2023-04-20T03:58:18;102233.27;;;7.80;64.07
50632;BME280;49583;45.590;-122.498;2023-04-20T04:00:40;102236.96;;;7.73;64.30
50632;BME280;49583;45.590;-122.498;2023-04-20T04:02:54;102238.08;;;7.68;64.13
50632;BME280;49583;45.590;-122.498;2023-04-20T04:05:10;102242.55;;;7.62;64.35
50632;BME280;49583;45.590;-122.498;2023-04-20T04:07:23;102246.21;;;7.57;64.56
50632;BME280;49583;45.590;-122.498;2023-04-20T04:09:36;102244.88;;;7.51;64.60
50632;BME280;49583;45.590;-122.498;2023-04-20T04:11:49;102245.67;;;7.48;64.68
50632;BME280;49583;45.590;-122.498;2023-04-20T04:14:02;102243.33;;;7.40;64.76
50632;BME280;49583;45.590;-122.498;2023-04-20T04:16:16;102253.59;;;7.41;64.92
50632;BME280;49583;45.590;-122.498;2023-04-20T04:18:32;102257.79;;;7.34;65.11
50632;BME280;49583;45.590;-122.498;2023-04-20T04:20:50;102261.23;;;7.26;65.10
50632;BME280;49583;45.590;-122.498;2023-04-20T04:23:03;102268.27;;;7.19;65.38
50632;BME280;49583;45.590;-122.498;2023-04-20T04:25:41;102279.10;;;7.13;65.48
50632;BME280;49583;45.590;-122.498;2023-04-20T04:27:54;102284.18;;;7.10;65.66
50632;BME280;49583;45.590;-122.498;2023-04-20T04:30:11;102286.11;;;7.05;65.78
50632;BME280;49583;45.590;-122.498;2023-04-20T04:32:24;102290.92;;;7.00;65.85
50632;BME280;49583;45.590;-122.498;2023-04-20T04:34:37;102293.55;;;6.96;65.88
50632;BME280;49583;45.590;-122.498;2023-04-20T04:36:53;102299.30;;;6.93;66.06
50632;BME280;49583;45.590;-122.498;2023-04-20T04:39:12;102298.71;;;6.89;66.10
50632;BME280;49583;45.590;-122.498;2023-04-20T04:41:31;102302.23;;;6.88;66.22
50632;BME280;49583;45.590;-122.498;2023-04-20T04:43:53;102302.74;;;6.85;66.32
50632;BME280;49583;45.590;-122.498;2023-04-20T04:46:11;102299.61;;;6.82;66.65
50632;BME280;49583;45.590;-122.498;2023-04-20T04:48:26;102296.46;;;6.75;66.81
50632;BME280;49583;45.590;-122.498;2023-04-20T04:50:40;102306.89;;;6.73;67.00
50632;BME280;49583;45.590;-122.498;2023-04-20T04:52:53;102312.14;;;6.71;66.93
50632;BME280;49583;45.590;-122.498;2023-04-20T04:55:07;102315.16;;;6.69;67.26
50632;BME280;49583;45.590;-122.498;2023-04-20T04:57:23;102316.64;;;6.65;67.11
50632;BME280;49583;45.590;-122.498;2023-04-20T04:59:36;102322.45;;;6.61;67.30
50632;BME280;49583;45.590;-122.498;2023-04-20T05:01:49;102324.42;;;6.57;67.58
50632;BME280;49583;45.590;-122.498;2023-04-20T05:04:01;102321.20;;;6.53;67.55
50632;BME280;49583;45.590;-122.498;2023-04-20T05:06:14;102323.71;;;6.51;67.67
50632;BME280;49583;45.590;-122.498;2023-04-20T05:08:27;102323.63;;;6.47;67.72
50632;BME280;49583;45.590;-122.498;2023-04-20T05:10:40;102322.68;;;6.43;67.86
50632;BME280;49583;45.590;-122.498;2023-04-20T05:12:53;102328.29;;;6.40;67.80
50632;BME280;49583;45.590;-122.498;2023-04-20T05:15:08;102326.98;;;6.34;67.80
50632;BME280;49583;45.590;-122.498;2023-04-20T05:17:22;102321.39;;;6.30;67.98
50632;BME280;49583;45.590;-122.498;2023-04-20T05:19:34;102321.42;;;6.27;68.05
50632;BME280;49583;45.590;-122.498;2023-04-20T05:21:47;102318.70;;;6.22;68.05
50632;BME280;49583;45.590;-122.498;2023-04-20T05:24:00;102321.02;;;6.19;68.09
50632;BME280;49583;45.590;-122.498;2023-04-20T05:26:13;102320.34;;;6.17;68.17
50632;BME280;49583;45.590;-122.498;2023-04-20T05:28:26;102326.70;;;6.16;68.13
50632;BME280;49583;45.590;-122.498;2023-04-20T05:30:39;102334.61;;;6.14;68.28
50632;BME280;49583;45.590;-122.498;2023-04-20T05:32:51;102329.29;;;6.10;68.48
50632;BME280;49583;45.590;-122.498;2023-04-20T05:35:04;102328.55;;;6.07;68.56
50632;BME280;49583;45.590;-122.498;2023-04-20T05:37:18;102323.58;;;6.05;68.51
50632;BME280;49583;45.590;-122.498;2023-04-20T05:39:31;102326.22;;;6.02;68.72
50632;BME280;49583;45.590;-122.498;2023-04-20T05:41:44;102325.37;;;5.99;68.75
50632;BME280;49583;45.590;-122.498;2023-04-20T05:43:57;102324.13;;;5.97;68.82
50632;BME280;49583;45.590;-122.498;2023-04-20T05:46:10;102327.16;;;5.95;68.72
50632;BME280;49583;45.590;-122.498;2023-04-20T05:48:22;102324.51;;;5.94;68.79
50632;BME280;49583;45.590;-122.498;2023-04-20T05:50:38;102330.05;;;5.95;68.89
50632;BME280;49583;45.590;-122.498;2023-04-20T05:52:51;102336.46;;;5.95;68.97
50632;BME280;49583;45.590;-122.498;2023-04-20T05:55:03;102337.93;;;5.95;69.01
50632;BME280;49583;45.590;-122.498;2023-04-20T05:57:16;102339.08;;;5.95;69.33
50632;BME280;49583;45.590;-122.498;2023-04-20T05:59:30;102340.12;;;5.93;69.15
50632;BME280;49583;45.590;-122.498;2023-04-20T06:01:43;102339.36;;;5.92;69.11
50632;BME280;49583;45.590;-122.498;2023-04-20T06:03:58;102338.33;;;5.92;69.14
50632;BME280;49583;45.590;-122.498;2023-04-20T06:06:11;102338.45;;;5.91;69.32
50632;BME280;49583;45.590;-122.498;2023-04-20T06:08:25;102338.39;;;5.91;69.55
50632;BME280;49583;45.590;-122.498;2023-04-20T06:10:37;102338.63;;;5.89;69.46
50632;BME280;49583;45.590;-122.498;2023-04-20T06:12:50;102341.68;;;5.89;69.48
50632;BME280;49583;45.590;-122.498;2023-04-20T06:15:02;102338.52;;;5.89;69.61
50632;BME280;49583;45.590;-122.498;2023-04-20T06:17:15;102343.87;;;5.88;69.63
50632;BME280;49583;45.590;-122.498;2023-04-20T06:19:28;102354.79;;;5.86;69.45
50632;BME280;49583;45.590;-122.498;2023-04-20T06:21:40;102359.42;;;5.84;69.41
50632;BME280;49583;45.590;-122.498;2023-04-20T06:23:55;102363.67;;;5.82;69.61
50632;BME280;49583;45.590;-122.498;2023-04-20T06:26:09;102365.54;;;5.81;69.86
50632;BME280;49583;45.590;-122.498;2023-04-20T06:28:21;102372.09;;;5.79;69.72
50632;BME280;49583;45.590;-122.498;2023-04-20T06:30:35;102377.44;;;5.76;69.67
50632;BME280;49583;45.590;-122.498;2023-04-20T06:32:47;102379.56;;;5.74;69.56
50632;BME280;49583;45.590;-122.498;2023-04-20T06:35:00;102380.75;;;5.71;69.81
50632;BME280;49583;45.590;-122.498;2023-04-20T06:37:13;102384.18;;;5.70;69.78
50632;BME280;49583;45.590;-122.498;2023-04-20T06:39:26;102385.66;;;5.67;69.73
50632;BME280;49583;45.590;-122.498;2023-04-20T06:41:39;102393.58;;;5.65;70.13
50632;BME280;49583;45.590;-122.498;2023-04-20T06:43:54;102398.59;;;5.61;69.89
50632;BME280;49583;45.590;-122.498;2023-04-20T06:46:07;102401.07;;;5.58;70.09
50632;BME280;49583;45.590;-122.498;2023-04-20T06:48:20;102401.16;;;5.53;70.01
50632;BME280;49583;45.590;-122.498;2023-04-20T06:50:40;102401.84;;;5.49;70.32
50632;BME280;49583;45.590;-122.498;2023-04-20T06:52:53;102406.95;;;5.49;70.28
50632;BME280;49583;45.590;-122.498;2023-04-20T06:55:07;102407.52;;;5.47;70.38
50632;BME280;49583;45.590;-122.498;2023-04-20T06:57:22;102410.88;;;5.48;70.18
50632;BME280;49583;45.590;-122.498;2023-04-20T06:59:35;102411.48;;;5.48;70.56
50632;BME280;49583;45.590;-122.498;2023-04-20T07:01:48;102411.92;;;5.46;70.46
50632;BME280;49583;45.590;-122.498;2023-04-20T07:04:01;102414.33;;;5.43;70.68
50632;BME280;49583;45.590;-122.498;2023-04-20T07:06:13;102418.48;;;5.41;70.62
50632;BME280;49583;45.590;-122.498;2023-04-20T07:08:26;102423.65;;;5.39;70.80
50632;BME280;49583;45.590;-122.498;2023-04-20T07:10:39;102427.02;;;5.39;70.68
50632;BME280;49583;45.590;-122.498;2023-04-20T07:12:54;102423.76;;;5.39;70.45
50632;BME280;49583;45.590;-122.498;2023-04-20T07:15:08;102421.75;;;5.39;71.02
50632;BME280;49583;45.590;-122.498;2023-04-20T07:17:21;102423.00;;;5.39;71.16
50632;BME280;49583;45.590;-122.498;2023-04-20T07:19:33;102424.15;;;5.38;71.16
50632;BME280;49583;45.590;-122.498;2023-04-20T07:21:46;102428.23;;;5.36;71.36
50632;BME280;49583;45.590;-122.498;2023-04-20T07:24:01;102430.71;;;5.31;71.59
50632;BME280;49583;45.590;-122.498;2023-04-20T07:26:13;102433.35;;;5.26;71.64
50632;BME280;49583;45.590;-122.498;2023-04-20T07:28:26;102439.66;;;5.22;71.75
50632;BME280;49583;45.590;-122.498;2023-04-20T07:30:39;102438.98;;;5.19;71.90
50632;BME280;49583;45.590;-122.498;2023-04-20T07:32:52;102438.50;;;5.18;71.99
50632;BME280;49583;45.590;-122.498;2023-04-20T07:35:05;102438.56;;;5.17;71.97
50632;BME280;49583;45.590;-122.498;2023-04-20T07:37:21;102440.73;;;5.17;71.99
50632;BME280;49583;45.590;-122.498;2023-04-20T07:39:35;102440.67;;;5.17;71.94
50632;BME280;49583;45.590;-122.498;2023-04-20T07:41:47;102442.03;;;5.18;72.04
50632;BME280;49583;45.590;-122.498;2023-04-20T07:44:00;102441.98;;;5.18;71.81
50632;BME280;49583;45.590;-122.498;2023-04-20T07:46:21;102441.92;;;5.16;71.71
50632;BME280;49583;45.590;-122.498;2023-04-20T07:48:34;102445.95;;;5.18;71.61
50632;BME280;49583;45.590;-122.498;2023-04-20T07:50:47;102449.48;;;5.17;71.80
50632;BME280;49583;45.590;-122.498;2023-04-20T07:53:00;102455.18;;;5.17;71.73
50632;BME280;49583;45.590;-122.498;2023-04-20T07:55:12;102449.59;;;5.14;71.58
50632;BME280;49583;45.590;-122.498;2023-04-20T07:57:27;102445.52;;;5.12;71.67
50632;BME280;49583;45.590;-122.498;2023-04-20T07:59:39;102445.43;;;5.11;71.96
50632;BME280;49583;45.590;-122.498;2023-04-20T08:01:52;102449.09;;;5.10;71.91
50632;BME280;49583;45.590;-122.498;2023-04-20T08:04:10;102456.42;;;5.08;71.79
50632;BME280;49583;45.590;-122.498;2023-04-20T08:06:23;102457.45;;;5.08;71.65
50632;BME280;49583;45.590;-122.498;2023-04-20T08:08:36;102462.98;;;5.08;71.75
50632;BME280;49583;45.590;-122.498;2023-04-20T08:10:49;102453.49;;;5.05;71.56
50632;BME280;49583;45.590;-122.498;2023-04-20T08:13:01;102457.72;;;5.07;71.53
50632;BME280;49583;45.590;-122.498;2023-04-20T08:15:14;102457.40;;;5.06;71.34
50632;BME280;49583;45.590;-122.498;2023-04-20T08:17:27;102456.90;;;5.04;71.67
50632;BME280;49583;45.590;-122.498;2023-04-20T08:19:42;102460.02;;;5.03;71.32
50632;BME280;49583;45.590;-122.498;2023-04-20T08:21:55;102458.02;;;5.00;71.14
50632;BME280;49583;45.590;-122.498;2023-04-20T08:24:10;102458.73;;;4.97;71.09
50632;BME280;49583;45.590;-122.498;2023-04-20T08:26:23;102459.08;;;4.94;71.18
50632;BME280;49583;45.590;-122.498;2023-04-20T08:28:36;102459.31;;;4.92;71.22
50632;BME280;49583;45.590;-122.498;2023-04-20T08:30:49;102460.13;;;4.88;71.21
50632;BME280;49583;45.590;-122.498;2023-04-20T08:33:02;102460.63;;;4.87;71.22
50632;BME280;49583;45.590;-122.498;2023-04-20T08:35:15;102460.38;;;4.84;71.29
50632;BME280;49583;45.590;-122.498;2023-04-20T08:37:28;102462.81;;;4.84;71.75
50632;BME280;49583;45.590;-122.498;2023-04-20T08:39:41;102459.77;;;4.83;71.72
50632;BME280;49583;45.590;-122.498;2023-04-20T08:41:54;102457.60;;;4.83;71.78
50632;BME280;49583;45.590;-122.498;2023-04-20T08:44:08;102459.77;;;4.84;71.86
50632;BME280;49583;45.590;-122.498;2023-04-20T08:46:22;102463.52;;;4.83;72.09
50632;BME280;49583;45.590;-122.498;2023-04-20T08:48:36;102463.79;;;4.82;72.24
50632;BME280;49583;45.590;-122.498;2023-04-20T08:50:49;102463.73;;;4.81;72.21
50632;BME280;49583;45.590;-122.498;2023-04-20T08:53:02;102461.89;;;4.81;72.28
50632;BME280;49583;45.590;-122.498;2023-04-20T08:55:19;102460.83;;;4.79;72.45
50632;BME280;49583;45.590;-122.498;2023-04-20T08:57:31;102458.02;;;4.79;72.45
50632;BME280;49583;45.590;-122.498;2023-04-20T08:59:44;102460.52;;;4.79;72.51
50632;BME280;49583;45.590;-122.498;2023-04-20T09:02:06;102455.02;;;4.77;72.44
50632;BME280;49583;45.590;-122.498;2023-04-20T09:04:16;102457.20;;;4.77;72.33
50632;BME280;49583;45.590;-122.498;2023-04-20T09:06:31;102456.44;;;4.74;72.11
50632;BME280;49583;45.590;-122.498;2023-04-20T09:08:46;102458.96;;;4.71;72.01
50632;BME280;49583;45.590;-122.498;2023-04-20T09:10:59;102456.52;;;4.67;71.98
50632;BME280;49583;45.590;-122.498;2023-04-20T09:13:24;102455.34;;;4.63;72.22
50632;BME280;49583;45.590;-122.498;2023-04-20T09:15:37;102455.88;;;4.61;72.23
50632;BME280;49583;45.590;-122.498;2023-04-20T09:17:50;102454.90;;;4.60;72.09
50632;BME280;49583;45.590;-122.498;2023-04-20T09:20:04;102455.13;;;4.58;71.89
50632;BME280;49583;45.590;-122.498;2023-04-20T09:22:27;102455.15;;;4.54;71.99
50632;BME280;49583;45.590;-122.498;2023-04-20T09:24:41;102451.46;;;4.50;71.94
50632;BME280;49583;45.590;-122.498;2023-04-20T09:26:54;102449.25;;;4.46;71.56
50632;BME280;49583;45.590;-122.498;2023-04-20T09:29:17;102448.16;;;4.42;71.88
50632;BME280;49583;45.590;-122.498;2023-04-20T09:31:30;102447.80;;;4.38;71.85
50632;BME280;49583;45.590;-122.498;2023-04-20T09:33:43;102447.80;;;4.34;71.39
50632;BME280;49583;45.590;-122.498;2023-04-20T09:36:04;102448.85;;;4.31;71.85
50632;BME280;49583;45.590;-122.498;2023-04-20T09:38:24;102450.52;;;4.28;71.96
50632;BME280;49583;45.590;-122.498;2023-04-20T09:40:37;102450.20;;;4.27;71.86
50632;BME280;49583;45.590;-122.498;2023-04-20T09:42:54;102450.83;;;4.23;71.80
50632;BME280;49583;45.590;-122.498;2023-04-20T09:45:13;102453.15;;;4.21;71.83
50632;BME280;49583;45.590;-122.498;2023-04-20T09:47:27;102457.05;;;4.18;71.83
50632;BME280;49583;45.590;-122.498;2023-04-20T09:49:40;102453.05;;;4.15;71.73
50632;BME280;49583;45.590;-122.498;2023-04-20T09:51:55;102452.67;;;4.10;71.92
50632;BME280;49583;45.590;-122.498;2023-04-20T09:54:09;102455.33;;;4.06;72.07
50632;BME280;49583;45.590;-122.498;2023-04-20T09:56:23;102453.04;;;4.04;72.01
50632;BME280;49583;45.590;-122.498;2023-04-20T09:58:35;102450.95;;;4.02;72.34
50632;BME280;49583;45.590;-122.498;2023-04-20T10:03:50;102453.10;;;3.98;72.45
50632;BME280;49583;45.590;-122.498;2023-04-20T10:06:04;102449.98;;;3.94;72.28
50632;BME280;49583;45.590;-122.498;2023-04-20T10:08:38;102448.98;;;3.91;72.58
50632;BME280;49583;45.590;-122.498;2023-04-20T10:11:11;102449.96;;;3.87;72.51
50632;BME280;49583;45.590;-122.498;2023-04-20T10:14:13;102459.49;;;3.82;72.18
50632;BME280;49583;45.590;-122.498;2023-04-20T10:16:33;102455.75;;;3.77;72.14
50632;BME280;49583;45.590;-122.498;2023-04-20T10:19:06;102462.42;;;3.74;72.14
50632;BME280;49583;45.590;-122.498;2023-04-20T10:21:57;102469.14;;;3.72;72.11
50632;BME280;49583;45.590;-122.498;2023-04-20T10:24:30;102473.73;;;3.67;72.14
50632;BME280;49583;45.590;-122.498;2023-04-20T10:26:43;102468.85;;;3.65;72.34
50632;BME280;49583;45.590;-122.498;2023-04-20T10:29:26;102466.38;;;3.63;72.37
50632;BME280;49583;45.590;-122.498;2023-04-20T10:32:02;102466.41;;;3.60;72.50
50632;BME280;49583;45.590;-122.498;2023-04-20T10:34:33;102466.79;;;3.59;72.46
50632;BME280;49583;45.590;-122.498;2023-04-20T10:36:49;102464.69;;;3.56;72.45
50632;BME280;49583;45.590;-122.498;2023-04-20T10:39:18;102466.63;;;3.54;72.46
50632;BME280;49583;45.590;-122.498;2023-04-20T10:41:36;102465.79;;;3.50;72.43
50632;BME280;49583;45.590;-122.498;2023-04-20T10:44:08;102469.48;;;3.48;72.51
50632;BME280;49583;45.590;-122.498;2023-04-20T10:46:41;102472.52;;;3.47;72.89
50632;BME280;49583;45.590;-122.498;2023-04-20T10:49:14;102476.69;;;3.45;72.71
50632;BME280;49583;45.590;-122.498;2023-04-20T10:51:52;102479.93;;;3.45;73.01
50632;BME280;49583;45.590;-122.498;2023-04-20T10:54:25;102481.94;;;3.45;73.15
50632;BME280;49583;45.590;-122.498;2023-04-20T10:56:43;102480.98;;;3.46;73.63
50632;BME280;49583;45.590;-122.498;2023-04-20T10:59:04;102484.64;;;3.50;74.37
50632;BME280;49583;45.590;-122.498;2023-04-20T11:01:32;102482.39;;;3.54;74.55
50632;BME280;49583;45.590;-122.498;2023-04-20T11:03:50;102481.63;;;3.57;74.76
50632;BME280;49583;45.590;-122.498;2023-04-20T11:06:17;102483.27;;;3.58;74.61
50632;BME280;49583;45.590;-122.498;2023-04-20T11:08:41;102483.11;;;3.61;74.55
50632;BME280;49583;45.590;-122.498;2023-04-20T11:11:04;102481.38;;;3.61;74.50
50632;BME280;49583;45.590;-122.498;2023-04-20T11:13:23;102483.98;;;3.63;74.35
50632;BME280;49583;45.590;-122.498;2023-04-20T11:15:49;102486.20;;;3.64;74.56
50632;BME280;49583;45.590;-122.498;2023-04-20T11:18:13;102489.33;;;3.66;74.63
50632;BME280;49583;45.590;-122.498;2023-04-20T11:20:53;102490.97;;;3.68;74.72
50632;BME280;49583;45.590;-122.498;2023-04-20T11:23:35;102482.80;;;3.69;74.75
50632;BME280;49583;45.590;-122.498;2023-04-20T11:25:58;102485.55;;;3.68;74.73
50632;BME280;49583;45.590;-122.498;2023-04-20T11:28:31;102486.73;;;3.68;74.40
50632;BME280;49583;45.590;-122.498;2023-04-20T11:30:54;102488.64;;;3.67;74.34
50632;BME280;49583;45.590;-122.498;2023-04-20T11:33:16;102485.33;;;3.67;74.71
50632;BME280;49583;45.590;-122.498;2023-04-20T11:35:40;102488.20;;;3.67;74.98